sensor_id;sensor_type;location;lat;lon;timestamp;P1;durP1;ratioP1;P2;durP2;ratioP2
64738;SDS011;51175;51.186;0.276;2023-07-13T00:00:10;38.85;;;22.10;;
64738;SDS011;51175;51.186;0.276;2023-07-13T00:00:41;41.78;;;23.02;;
64738;SDS011;51175;51.186;0.276;2023-07-13T00:01:13;42.72;;;23.42;;
64738;SDS011;51175;51.186;0.276;2023-07-13T00:01:44;37.20;;;21.02;;
64738;SDS011;51175;51.186;0.276;2023-07-13T00:02:16;38.40;;;22.13;;
64738;SDS011;51175;51.186;0.276;2023-07-13T00:02:46;38.47;;;21.15;;
64738;SDS011;51175;51.186;0.276;2023-07-13T00:03:17;41.53;;;21.08;;
64738;SDS011;51175;51.186;0.276;2023-07-13T00:03:47;41.97;;;22.90;;
64738;SDS011;51175;51.186;0.276;2023-07-13T00:04:19;38.13;;;21.95;;
64738;SDS011;51175;51.186;0.276;2023-07-13T00:04:50;35.80;;;21.77;;
64738;SDS011;51175;51.186;0.276;2023-07-13T00:05:22;38.13;;;21.65;;
64738;SDS011;51175;51.186;0.276;2023-07-13T00:05:57;38.90;;;22.40;;
64738;SDS011;51175;51.186;0.276;2023-07-13T00:06:28;36.20;;;21.48;;
64738;SDS011;51175;51.186;0.276;2023-07-13T00:07:02;41.38;;;21.58;;
64738;SDS011;51175;51.186;0.276;2023-07-13T00:07:33;38.20;;;21.58;;
64738;SDS011;51175;51.186;0.276;2023-07-13T00:08:05;39.25;;;21.92;;
64738;SDS011;51175;51.186;0.276;2023-07-13T00:08:35;36.53;;;19.90;;
64738;SDS011;51175;51.186;0.276;2023-07-13T00:09:05;33.63;;;20.58;;
64738;SDS011;51175;51.186;0.276;2023-07-13T00:09:36;38.03;;;22.08;;
64738;SDS011;51175;51.186;0.276;2023-07-13T00:10:07;33.38;;;20.10;;
64738;SDS011;51175;51.186;0.276;2023-07-13T00:10:39;36.28;;;21.48;;
64738;SDS011;51175;51.186;0.276;2023-07-13T00:11:11;36.63;;;22.15;;
64738;SDS011;51175;51.186;0.276;2023-07-13T00:11:41;35.90;;;21.23;;
64738;SDS011;51175;51.186;0.276;2023-07-13T00:12:25;38.28;;;20.77;;
64738;SDS011;51175;51.186;0.276;2023-07-13T00:12:57;33.28;;;19.88;;
64738;SDS011;51175;51.186;0.276;2023-07-13T00:13:28;30.75;;;19.00;;
64738;SDS011;51175;51.186;0.276;2023-07-13T00:13:59;35.15;;;20.45;;
64738;SDS011;51175;51.186;0.276;2023-07-13T00:14:29;35.85;;;21.73;;
64738;SDS011;51175;51.186;0.276;2023-07-13T00:15:01;37.22;;;20.52;;
64738;SDS011;51175;51.186;0.276;2023-07-13T00:15:34;34.80;;;20.58;;
64738;SDS011;51175;51.186;0.276;2023-07-13T00:16:06;33.25;;;19.40;;
64738;SDS011;51175;51.186;0.276;2023-07-13T00:16:37;35.90;;;20.35;;
64738;SDS011;51175;51.186;0.276;2023-07-13T00:17:10;33.15;;;19.85;;
64738;SDS011;51175;51.186;0.276;2023-07-13T00:17:40;34.80;;;18.88;;
64738;SDS011;51175;51.186;0.276;2023-07-13T00:18:11;34.30;;;18.85;;
64738;SDS011;51175;51.186;0.276;2023-07-13T00:18:41;32.95;;;19.23;;
64738;SDS011;51175;51.186;0.276;2023-07-13T00:19:11;31.77;;;19.25;;
64738;SDS011;51175;51.186;0.276;2023-07-13T00:19:42;34.45;;;18.48;;
64738;SDS011;51175;51.186;0.276;2023-07-13T00:20:13;36.88;;;19.52;;
64738;SDS011;51175;51.186;0.276;2023-07-13T00:20:43;35.53;;;19.02;;
64738;SDS011;51175;51.186;0.276;2023-07-13T00:21:13;30.50;;;18.20;;
64738;SDS011;51175;51.186;0.276;2023-07-13T00:21:44;36.25;;;20.95;;
64738;SDS011;51175;51.186;0.276;2023-07-13T00:22:15;37.67;;;21.05;;
64738;SDS011;51175;51.186;0.276;2023-07-13T00:22:46;30.38;;;18.05;;
64738;SDS011;51175;51.186;0.276;2023-07-13T00:23:16;34.80;;;19.13;;
64738;SDS011;51175;51.186;0.276;2023-07-13T00:23:48;33.53;;;18.13;;
64738;SDS011;51175;51.186;0.276;2023-07-13T00:24:18;28.33;;;17.45;;
64738;SDS011;51175;51.186;0.276;2023-07-13T00:24:53;34.15;;;19.40;;
64738;SDS011;51175;51.186;0.276;2023-07-13T00:25:26;29.00;;;18.48;;
64738;SDS011;51175;51.186;0.276;2023-07-13T00:25:58;32.40;;;17.77;;
64738;SDS011;51175;51.186;0.276;2023-07-13T00:26:28;33.15;;;17.45;;
64738;SDS011;51175;51.186;0.276;2023-07-13T00:26:58;31.92;;;17.77;;
64738;SDS011;51175;51.186;0.276;2023-07-13T00:27:29;29.33;;;17.38;;
64738;SDS011;51175;51.186;0.276;2023-07-13T00:28:01;30.25;;;17.15;;
64738;SDS011;51175;51.186;0.276;2023-07-13T00:28:32;32.65;;;17.88;;
64738;SDS011;51175;51.186;0.276;2023-07-13T00:29:03;32.55;;;18.65;;
64738;SDS011;51175;51.186;0.276;2023-07-13T00:29:34;31.27;;;17.15;;
64738;SDS011;51175;51.186;0.276;2023-07-13T00:30:05;29.98;;;17.10;;
64738;SDS011;51175;51.186;0.276;2023-07-13T00:30:36;30.13;;;17.67;;
64738;SDS011;51175;51.186;0.276;2023-07-13T00:31:08;29.55;;;16.13;;
64738;SDS011;51175;51.186;0.276;2023-07-13T00:31:39;33.60;;;18.23;;
64738;SDS011;51175;51.186;0.276;2023-07-13T00:32:10;30.27;;;16.65;;
64738;SDS011;51175;51.186;0.276;2023-07-13T00:32:41;31.05;;;16.92;;
64738;SDS011;51175;51.186;0.276;2023-07-13T00:33:11;27.67;;;16.58;;
64738;SDS011;51175;51.186;0.276;2023-07-13T00:33:42;29.95;;;16.90;;
64738;SDS011;51175;51.186;0.276;2023-07-13T00:34:12;27.95;;;15.88;;
64738;SDS011;51175;51.186;0.276;2023-07-13T00:34:43;30.33;;;15.82;;
64738;SDS011;51175;51.186;0.276;2023-07-13T00:35:14;27.85;;;15.45;;
64738;SDS011;51175;51.186;0.276;2023-07-13T00:35:45;29.77;;;17.05;;
64738;SDS011;51175;51.186;0.276;2023-07-13T00:36:16;28.98;;;16.40;;
64738;SDS011;51175;51.186;0.276;2023-07-13T00:36:46;30.50;;;16.55;;
64738;SDS011;51175;51.186;0.276;2023-07-13T00:37:17;28.35;;;16.63;;
64738;SDS011;51175;51.186;0.276;2023-07-13T00:37:47;27.00;;;16.58;;
64738;SDS011;51175;51.186;0.276;2023-07-13T00:38:18;31.10;;;16.23;;
64738;SDS011;51175;51.186;0.276;2023-07-13T00:38:48;26.25;;;15.52;;
64738;SDS011;51175;51.186;0.276;2023-07-13T00:39:18;27.38;;;16.20;;
64738;SDS011;51175;51.186;0.276;2023-07-13T00:39:50;26.67;;;17.30;;
64738;SDS011;51175;51.186;0.276;2023-07-13T00:40:21;28.08;;;17.17;;
64738;SDS011;51175;51.186;0.276;2023-07-13T00:40:52;28.95;;;15.73;;
64738;SDS011;51175;51.186;0.276;2023-07-13T00:41:22;27.92;;;15.98;;
64738;SDS011;51175;51.186;0.276;2023-07-13T00:41:52;29.95;;;15.82;;
64738;SDS011;51175;51.186;0.276;2023-07-13T00:42:23;25.35;;;14.95;;
64738;SDS011;51175;51.186;0.276;2023-07-13T00:42:56;26.50;;;14.25;;
64738;SDS011;51175;51.186;0.276;2023-07-13T00:43:28;28.23;;;15.52;;
64738;SDS011;51175;51.186;0.276;2023-07-13T00:43:58;26.15;;;15.02;;
64738;SDS011;51175;51.186;0.276;2023-07-13T00:44:29;28.33;;;14.57;;
64738;SDS011;51175;51.186;0.276;2023-07-13T00:46:17;27.60;;;14.75;;
64738;SDS011;51175;51.186;0.276;2023-07-13T00:46:58;24.23;;;14.57;;
64738;SDS011;51175;51.186;0.276;2023-07-13T00:47:29;25.05;;;14.68;;
64738;SDS011;51175;51.186;0.276;2023-07-13T00:47:59;24.55;;;14.82;;
64738;SDS011;51175;51.186;0.276;2023-07-13T00:48:31;24.55;;;14.13;;
64738;SDS011;51175;51.186;0.276;2023-07-13T00:49:05;26.38;;;14.70;;
64738;SDS011;51175;51.186;0.276;2023-07-13T00:49:37;22.42;;;13.85;;
64738;SDS011;51175;51.186;0.276;2023-07-13T00:50:09;25.77;;;13.00;;
64738;SDS011;51175;51.186;0.276;2023-07-13T00:50:42;26.60;;;13.88;;
64738;SDS011;51175;51.186;0.276;2023-07-13T00:51:20;27.48;;;14.07;;
64738;SDS011;51175;51.186;0.276;2023-07-13T00:51:58;23.95;;;14.13;;
64738;SDS011;51175;51.186;0.276;2023-07-13T00:52:34;22.83;;;13.05;;
64738;SDS011;51175;51.186;0.276;2023-07-13T00:53:06;25.02;;;13.73;;
64738;SDS011;51175;51.186;0.276;2023-07-13T00:53:38;23.95;;;14.00;;
64738;SDS011;51175;51.186;0.276;2023-07-13T00:54:09;25.92;;;13.63;;
64738;SDS011;51175;51.186;0.276;2023-07-13T00:54:43;21.45;;;12.30;;
64738;SDS011;51175;51.186;0.276;2023-07-13T00:55:16;23.23;;;12.85;;
64738;SDS011;51175;51.186;0.276;2023-07-13T00:55:48;24.38;;;12.98;;
64738;SDS011;51175;51.186;0.276;2023-07-13T00:56:20;22.63;;;12.75;;
64738;SDS011;51175;51.186;0.276;2023-07-13T00:56:52;23.98;;;12.98;;
64738;SDS011;51175;51.186;0.276;2023-07-13T00:57:25;22.08;;;13.27;;
64738;SDS011;51175;51.186;0.276;2023-07-13T00:57:56;21.33;;;11.50;;
64738;SDS011;51175;51.186;0.276;2023-07-13T00:58:27;20.58;;;11.98;;
64738;SDS011;51175;51.186;0.276;2023-07-13T00:58:59;18.63;;;11.52;;
64738;SDS011;51175;51.186;0.276;2023-07-13T00:59:31;19.30;;;10.75;;
64738;SDS011;51175;51.186;0.276;2023-07-13T01:00:05;20.15;;;11.93;;
64738;SDS011;51175;51.186;0.276;2023-07-13T01:00:39;23.85;;;12.65;;
64738;SDS011;51175;51.186;0.276;2023-07-13T01:01:10;23.35;;;12.63;;
64738;SDS011;51175;51.186;0.276;2023-07-13T01:01:42;22.05;;;11.77;;
64738;SDS011;51175;51.186;0.276;2023-07-13T01:02:13;19.98;;;10.98;;
64738;SDS011;51175;51.186;0.276;2023-07-13T01:02:44;20.55;;;11.57;;
64738;SDS011;51175;51.186;0.276;2023-07-13T01:03:19;19.27;;;10.90;;
64738;SDS011;51175;51.186;0.276;2023-07-13T01:03:49;21.15;;;12.55;;
64738;SDS011;51175;51.186;0.276;2023-07-13T01:04:20;19.65;;;11.18;;
64738;SDS011;51175;51.186;0.276;2023-07-13T01:04:50;23.65;;;11.95;;
64738;SDS011;51175;51.186;0.276;2023-07-13T01:05:21;17.77;;;10.45;;
64738;SDS011;51175;51.186;0.276;2023-07-13T01:05:52;23.80;;;11.20;;
64738;SDS011;51175;51.186;0.276;2023-07-13T01:06:23;21.80;;;11.02;;
64738;SDS011;51175;51.186;0.276;2023-07-13T01:06:54;17.25;;;10.57;;
64738;SDS011;51175;51.186;0.276;2023-07-13T01:07:25;19.90;;;10.98;;
64738;SDS011;51175;51.186;0.276;2023-07-13T01:07:55;18.48;;;9.63;;
64738;SDS011;51175;51.186;0.276;2023-07-13T01:08:25;19.02;;;11.10;;
64738;SDS011;51175;51.186;0.276;2023-07-13T01:08:56;19.92;;;10.65;;
64738;SDS011;51175;51.186;0.276;2023-07-13T01:09:28;17.60;;;9.80;;
64738;SDS011;51175;51.186;0.276;2023-07-13T01:09:59;19.02;;;10.05;;
64738;SDS011;51175;51.186;0.276;2023-07-13T01:10:29;19.52;;;9.70;;
64738;SDS011;51175;51.186;0.276;2023-07-13T01:11:02;18.38;;;9.88;;
64738;SDS011;51175;51.186;0.276;2023-07-13T01:11:32;21.35;;;10.95;;
64738;SDS011;51175;51.186;0.276;2023-07-13T01:12:03;18.75;;;9.57;;
64738;SDS011;51175;51.186;0.276;2023-07-13T01:12:33;20.85;;;10.57;;
64738;SDS011;51175;51.186;0.276;2023-07-13T01:13:05;17.70;;;11.25;;
64738;SDS011;51175;51.186;0.276;2023-07-13T01:13:37;19.30;;;9.90;;
64738;SDS011;51175;51.186;0.276;2023-07-13T01:14:08;19.33;;;10.65;;
64738;SDS011;51175;51.186;0.276;2023-07-13T01:14:39;19.00;;;10.48;;
64738;SDS011;51175;51.186;0.276;2023-07-13T01:16:24;19.60;;;10.40;;
64738;SDS011;51175;51.186;0.276;2023-07-13T01:16:57;19.77;;;9.77;;
64738;SDS011;51175;51.186;0.276;2023-07-13T01:17:30;17.98;;;10.77;;
64738;SDS011;51175;51.186;0.276;2023-07-13T01:18:04;16.65;;;9.30;;
64738;SDS011;51175;51.186;0.276;2023-07-13T01:18:40;15.40;;;8.60;;
64738;SDS011;51175;51.186;0.276;2023-07-13T01:19:13;16.75;;;9.93;;
64738;SDS011;51175;51.186;0.276;2023-07-13T01:19:46;18.00;;;10.68;;
64738;SDS011;51175;51.186;0.276;2023-07-13T01:20:17;16.70;;;9.23;;
64738;SDS011;51175;51.186;0.276;2023-07-13T01:21:00;16.00;;;8.73;;
64738;SDS011;51175;51.186;0.276;2023-07-13T01:21:33;16.58;;;9.52;;
64738;SDS011;51175;51.186;0.276;2023-07-13T01:22:04;16.95;;;8.93;;
64738;SDS011;51175;51.186;0.276;2023-07-13T01:22:39;16.60;;;8.75;;
64738;SDS011;51175;51.186;0.276;2023-07-13T01:23:10;17.60;;;9.32;;
64738;SDS011;51175;51.186;0.276;2023-07-13T01:23:43;17.80;;;9.32;;
64738;SDS011;51175;51.186;0.276;2023-07-13T01:24:14;20.40;;;9.65;;
64738;SDS011;51175;51.186;0.276;2023-07-13T01:24:45;17.52;;;9.57;;
64738;SDS011;51175;51.186;0.276;2023-07-13T01:25:18;16.25;;;9.20;;
64738;SDS011;51175;51.186;0.276;2023-07-13T01:25:49;16.40;;;8.98;;
64738;SDS011;51175;51.186;0.276;2023-07-13T01:26:19;18.73;;;9.57;;
64738;SDS011;51175;51.186;0.276;2023-07-13T01:26:50;13.82;;;8.20;;
64738;SDS011;51175;51.186;0.276;2023-07-13T01:27:21;16.55;;;8.52;;
64738;SDS011;51175;51.186;0.276;2023-07-13T01:27:54;14.65;;;8.25;;
64738;SDS011;51175;51.186;0.276;2023-07-13T01:28:26;14.13;;;7.82;;
64738;SDS011;51175;51.186;0.276;2023-07-13T01:28:57;14.68;;;7.90;;
64738;SDS011;51175;51.186;0.276;2023-07-13T01:29:27;13.95;;;7.78;;
64738;SDS011;51175;51.186;0.276;2023-07-13T01:29:58;17.25;;;8.45;;
64738;SDS011;51175;51.186;0.276;2023-07-13T01:30:33;15.02;;;8.65;;
64738;SDS011;51175;51.186;0.276;2023-07-13T01:31:04;17.75;;;7.93;;
64738;SDS011;51175;51.186;0.276;2023-07-13T01:31:34;15.38;;;7.57;;
64738;SDS011;51175;51.186;0.276;2023-07-13T01:32:05;14.02;;;7.45;;
64738;SDS011;51175;51.186;0.276;2023-07-13T01:32:38;14.88;;;7.75;;
64738;SDS011;51175;51.186;0.276;2023-07-13T01:33:15;18.02;;;8.63;;
64738;SDS011;51175;51.186;0.276;2023-07-13T01:33:47;17.83;;;8.27;;
64738;SDS011;51175;51.186;0.276;2023-07-13T01:34:17;16.48;;;9.45;;
64738;SDS011;51175;51.186;0.276;2023-07-13T01:34:48;15.10;;;7.95;;
64738;SDS011;51175;51.186;0.276;2023-07-13T01:35:18;13.93;;;7.28;;
64738;SDS011;51175;51.186;0.276;2023-07-13T01:35:48;14.27;;;7.78;;
64738;SDS011;51175;51.186;0.276;2023-07-13T01:36:19;15.93;;;8.45;;
64738;SDS011;51175;51.186;0.276;2023-07-13T01:36:53;16.77;;;9.40;;
64738;SDS011;51175;51.186;0.276;2023-07-13T01:37:24;18.00;;;8.50;;
64738;SDS011;51175;51.186;0.276;2023-07-13T01:37:55;12.82;;;7.80;;
64738;SDS011;51175;51.186;0.276;2023-07-13T01:38:26;12.23;;;7.50;;
64738;SDS011;51175;51.186;0.276;2023-07-13T01:38:57;12.77;;;7.07;;
64738;SDS011;51175;51.186;0.276;2023-07-13T01:39:27;12.63;;;7.25;;
64738;SDS011;51175;51.186;0.276;2023-07-13T01:39:57;14.23;;;7.22;;
64738;SDS011;51175;51.186;0.276;2023-07-13T01:40:28;13.57;;;7.25;;
64738;SDS011;51175;51.186;0.276;2023-07-13T01:41:00;15.70;;;7.15;;
64738;SDS011;51175;51.186;0.276;2023-07-13T01:41:30;12.80;;;6.40;;
64738;SDS011;51175;51.186;0.276;2023-07-13T01:42:01;11.93;;;7.07;;
64738;SDS011;51175;51.186;0.276;2023-07-13T01:42:31;12.13;;;6.38;;
64738;SDS011;51175;51.186;0.276;2023-07-13T01:43:02;14.05;;;6.47;;
64738;SDS011;51175;51.186;0.276;2023-07-13T01:43:32;17.63;;;8.23;;
64738;SDS011;51175;51.186;0.276;2023-07-13T01:44:03;14.02;;;7.20;;
64738;SDS011;51175;51.186;0.276;2023-07-13T01:44:33;16.38;;;8.25;;
64738;SDS011;51175;51.186;0.276;2023-07-13T01:45:04;12.35;;;6.95;;
64738;SDS011;51175;51.186;0.276;2023-07-13T01:45:35;11.57;;;6.68;;
64738;SDS011;51175;51.186;0.276;2023-07-13T01:46:05;10.98;;;6.22;;
64738;SDS011;51175;51.186;0.276;2023-07-13T01:46:36;11.68;;;6.43;;
64738;SDS011;51175;51.186;0.276;2023-07-13T01:47:06;12.73;;;6.68;;
64738;SDS011;51175;51.186;0.276;2023-07-13T01:47:37;11.77;;;7.55;;
64738;SDS011;51175;51.186;0.276;2023-07-13T01:48:07;13.25;;;6.38;;
64738;SDS011;51175;51.186;0.276;2023-07-13T01:48:37;14.35;;;6.95;;
64738;SDS011;51175;51.186;0.276;2023-07-13T01:49:08;12.93;;;6.07;;
64738;SDS011;51175;51.186;0.276;2023-07-13T01:49:38;12.55;;;6.85;;
64738;SDS011;51175;51.186;0.276;2023-07-13T01:50:09;13.93;;;6.82;;
64738;SDS011;51175;51.186;0.276;2023-07-13T01:50:40;12.30;;;6.72;;
64738;SDS011;51175;51.186;0.276;2023-07-13T01:51:10;12.82;;;6.38;;
64738;SDS011;51175;51.186;0.276;2023-07-13T01:51:41;10.82;;;5.93;;
64738;SDS011;51175;51.186;0.276;2023-07-13T01:52:11;12.00;;;6.88;;
64738;SDS011;51175;51.186;0.276;2023-07-13T01:52:42;15.57;;;7.18;;
64738;SDS011;51175;51.186;0.276;2023-07-13T01:53:12;9.38;;;5.43;;
64738;SDS011;51175;51.186;0.276;2023-07-13T01:53:43;11.23;;;5.32;;
64738;SDS011;51175;51.186;0.276;2023-07-13T01:54:13;9.00;;;4.97;;
64738;SDS011;51175;51.186;0.276;2023-07-13T01:54:44;12.52;;;6.80;;
64738;SDS011;51175;51.186;0.276;2023-07-13T01:55:14;11.88;;;5.60;;
64738;SDS011;51175;51.186;0.276;2023-07-13T01:55:44;11.45;;;5.95;;
64738;SDS011;51175;51.186;0.276;2023-07-13T01:56:15;9.02;;;5.55;;
64738;SDS011;51175;51.186;0.276;2023-07-13T01:56:45;13.15;;;6.15;;
64738;SDS011;51175;51.186;0.276;2023-07-13T01:57:16;9.50;;;5.90;;
64738;SDS011;51175;51.186;0.276;2023-07-13T01:57:46;11.20;;;5.35;;
64738;SDS011;51175;51.186;0.276;2023-07-13T01:58:16;14.30;;;5.80;;
64738;SDS011;51175;51.186;0.276;2023-07-13T01:58:47;9.68;;;5.43;;
64738;SDS011;51175;51.186;0.276;2023-07-13T01:59:17;10.73;;;5.85;;
64738;SDS011;51175;51.186;0.276;2023-07-13T01:59:48;10.32;;;5.65;;
64738;SDS011;51175;51.186;0.276;2023-07-13T02:00:18;11.02;;;5.25;;
64738;SDS011;51175;51.186;0.276;2023-07-13T02:00:49;12.52;;;5.25;;
64738;SDS011;51175;51.186;0.276;2023-07-13T02:01:21;10.77;;;5.15;;
64738;SDS011;51175;51.186;0.276;2023-07-13T02:01:51;13.88;;;5.70;;
64738;SDS011;51175;51.186;0.276;2023-07-13T02:02:21;9.63;;;5.50;;
64738;SDS011;51175;51.186;0.276;2023-07-13T02:02:52;10.50;;;5.28;;
64738;SDS011;51175;51.186;0.276;2023-07-13T02:03:22;11.93;;;5.40;;
64738;SDS011;51175;51.186;0.276;2023-07-13T02:03:53;8.50;;;5.65;;
64738;SDS011;51175;51.186;0.276;2023-07-13T02:04:23;8.13;;;4.40;;
64738;SDS011;51175;51.186;0.276;2023-07-13T02:04:53;8.85;;;5.07;;
64738;SDS011;51175;51.186;0.276;2023-07-13T02:05:24;9.80;;;5.53;;
64738;SDS011;51175;51.186;0.276;2023-07-13T02:05:55;9.20;;;5.13;;
64738;SDS011;51175;51.186;0.276;2023-07-13T02:06:25;9.30;;;4.68;;
64738;SDS011;51175;51.186;0.276;2023-07-13T02:06:55;8.55;;;5.00;;
64738;SDS011;51175;51.186;0.276;2023-07-13T02:07:26;8.50;;;5.28;;
64738;SDS011;51175;51.186;0.276;2023-07-13T02:07:56;11.23;;;5.15;;
64738;SDS011;51175;51.186;0.276;2023-07-13T02:08:27;12.75;;;5.72;;
64738;SDS011;51175;51.186;0.276;2023-07-13T02:08:58;9.43;;;4.75;;
64738;SDS011;51175;51.186;0.276;2023-07-13T02:09:29;8.85;;;4.78;;
64738;SDS011;51175;51.186;0.276;2023-07-13T02:09:59;10.93;;;4.78;;
64738;SDS011;51175;51.186;0.276;2023-07-13T02:10:30;11.00;;;5.00;;
64738;SDS011;51175;51.186;0.276;2023-07-13T02:11:02;10.18;;;5.18;;
64738;SDS011;51175;51.186;0.276;2023-07-13T02:11:33;9.10;;;4.38;;
64738;SDS011;51175;51.186;0.276;2023-07-13T02:12:03;8.95;;;5.10;;
64738;SDS011;51175;51.186;0.276;2023-07-13T02:12:34;13.25;;;5.63;;
64738;SDS011;51175;51.186;0.276;2023-07-13T02:13:06;8.57;;;4.30;;
64738;SDS011;51175;51.186;0.276;2023-07-13T02:13:36;9.45;;;4.88;;
64738;SDS011;51175;51.186;0.276;2023-07-13T02:14:07;9.02;;;3.88;;
64738;SDS011;51175;51.186;0.276;2023-07-13T02:14:37;7.97;;;4.72;;
64738;SDS011;51175;51.186;0.276;2023-07-13T02:15:08;9.80;;;4.38;;
64738;SDS011;51175;51.186;0.276;2023-07-13T02:15:39;7.82;;;4.25;;
64738;SDS011;51175;51.186;0.276;2023-07-13T02:16:10;8.65;;;4.47;;
64738;SDS011;51175;51.186;0.276;2023-07-13T02:16:41;6.88;;;3.97;;
64738;SDS011;51175;51.186;0.276;2023-07-13T02:17:11;9.00;;;5.18;;
64738;SDS011;51175;51.186;0.276;2023-07-13T02:17:43;8.07;;;4.20;;
64738;SDS011;51175;51.186;0.276;2023-07-13T02:18:14;8.52;;;4.25;;
64738;SDS011;51175;51.186;0.276;2023-07-13T02:18:47;8.32;;;4.20;;
64738;SDS011;51175;51.186;0.276;2023-07-13T02:19:17;9.05;;;4.88;;
64738;SDS011;51175;51.186;0.276;2023-07-13T02:19:47;11.15;;;4.93;;
64738;SDS011;51175;51.186;0.276;2023-07-13T02:20:18;10.43;;;4.68;;
64738;SDS011;51175;51.186;0.276;2023-07-13T02:20:48;9.30;;;4.47;;
64738;SDS011;51175;51.186;0.276;2023-07-13T02:21:18;7.65;;;3.95;;
64738;SDS011;51175;51.186;0.276;2023-07-13T02:21:49;8.48;;;4.15;;
64738;SDS011;51175;51.186;0.276;2023-07-13T02:22:20;9.60;;;5.32;;
64738;SDS011;51175;51.186;0.276;2023-07-13T02:22:51;10.77;;;4.78;;
64738;SDS011;51175;51.186;0.276;2023-07-13T02:23:21;7.18;;;3.83;;
64738;SDS011;51175;51.186;0.276;2023-07-13T02:23:52;8.85;;;4.18;;
64738;SDS011;51175;51.186;0.276;2023-07-13T02:24:22;9.18;;;4.20;;
64738;SDS011;51175;51.186;0.276;2023-07-13T02:24:53;9.32;;;4.45;;
64738;SDS011;51175;51.186;0.276;2023-07-13T02:25:23;10.55;;;4.28;;
64738;SDS011;51175;51.186;0.276;2023-07-13T02:25:55;6.43;;;3.50;;
64738;SDS011;51175;51.186;0.276;2023-07-13T02:26:27;9.48;;;4.82;;
64738;SDS011;51175;51.186;0.276;2023-07-13T02:26:58;10.10;;;4.47;;
64738;SDS011;51175;51.186;0.276;2023-07-13T02:27:28;7.43;;;4.38;;
64738;SDS011;51175;51.186;0.276;2023-07-13T02:27:58;6.90;;;3.55;;
64738;SDS011;51175;51.186;0.276;2023-07-13T02:28:29;8.45;;;3.50;;
64738;SDS011;51175;51.186;0.276;2023-07-13T02:28:59;6.50;;;4.15;;
64738;SDS011;51175;51.186;0.276;2023-07-13T02:29:30;7.57;;;4.05;;
64738;SDS011;51175;51.186;0.276;2023-07-13T02:30:00;7.68;;;4.60;;
64738;SDS011;51175;51.186;0.276;2023-07-13T02:30:30;7.93;;;3.42;;
64738;SDS011;51175;51.186;0.276;2023-07-13T02:31:08;11.98;;;4.63;;
64738;SDS011;51175;51.186;0.276;2023-07-13T02:31:41;9.23;;;4.55;;
64738;SDS011;51175;51.186;0.276;2023-07-13T02:32:11;8.82;;;4.20;;
64738;SDS011;51175;51.186;0.276;2023-07-13T02:32:41;9.68;;;4.25;;
64738;SDS011;51175;51.186;0.276;2023-07-13T02:33:13;8.85;;;3.63;;
64738;SDS011;51175;51.186;0.276;2023-07-13T02:33:43;6.40;;;3.63;;
64738;SDS011;51175;51.186;0.276;2023-07-13T02:34:14;10.25;;;4.10;;
64738;SDS011;51175;51.186;0.276;2023-07-13T02:34:44;10.57;;;4.07;;
64738;SDS011;51175;51.186;0.276;2023-07-13T02:35:15;7.97;;;4.03;;
64738;SDS011;51175;51.186;0.276;2023-07-13T02:35:45;8.45;;;4.50;;
64738;SDS011;51175;51.186;0.276;2023-07-13T02:36:16;9.57;;;3.97;;
64738;SDS011;51175;51.186;0.276;2023-07-13T02:36:46;7.40;;;3.90;;
64738;SDS011;51175;51.186;0.276;2023-07-13T02:37:16;9.88;;;4.18;;
64738;SDS011;51175;51.186;0.276;2023-07-13T02:37:47;7.25;;;4.07;;
64738;SDS011;51175;51.186;0.276;2023-07-13T02:38:17;7.72;;;3.97;;
64738;SDS011;51175;51.186;0.276;2023-07-13T02:38:49;8.52;;;3.30;;
64738;SDS011;51175;51.186;0.276;2023-07-13T02:39:20;8.07;;;4.72;;
64738;SDS011;51175;51.186;0.276;2023-07-13T02:39:50;11.35;;;3.92;;
64738;SDS011;51175;51.186;0.276;2023-07-13T02:40:21;6.90;;;3.60;;
64738;SDS011;51175;51.186;0.276;2023-07-13T02:40:51;11.00;;;4.32;;
64738;SDS011;51175;51.186;0.276;2023-07-13T02:41:21;6.80;;;3.88;;
64738;SDS011;51175;51.186;0.276;2023-07-13T02:41:53;8.48;;;3.83;;
64738;SDS011;51175;51.186;0.276;2023-07-13T02:42:23;7.28;;;3.53;;
64738;SDS011;51175;51.186;0.276;2023-07-13T02:42:53;6.95;;;3.47;;
64738;SDS011;51175;51.186;0.276;2023-07-13T02:43:24;9.65;;;3.47;;
64738;SDS011;51175;51.186;0.276;2023-07-13T02:43:54;5.38;;;3.17;;
64738;SDS011;51175;51.186;0.276;2023-07-13T02:44:32;10.52;;;4.65;;
64738;SDS011;51175;51.186;0.276;2023-07-13T02:45:03;6.90;;;3.30;;
64738;SDS011;51175;51.186;0.276;2023-07-13T02:45:33;6.93;;;3.28;;
64738;SDS011;51175;51.186;0.276;2023-07-13T02:46:04;8.45;;;3.75;;
64738;SDS011;51175;51.186;0.276;2023-07-13T02:46:37;7.00;;;3.30;;
64738;SDS011;51175;51.186;0.276;2023-07-13T02:47:07;6.20;;;3.42;;
64738;SDS011;51175;51.186;0.276;2023-07-13T02:47:39;7.43;;;3.90;;
64738;SDS011;51175;51.186;0.276;2023-07-13T02:48:13;7.00;;;3.50;;
64738;SDS011;51175;51.186;0.276;2023-07-13T02:48:44;6.55;;;3.22;;
64738;SDS011;51175;51.186;0.276;2023-07-13T02:49:14;8.88;;;3.70;;
64738;SDS011;51175;51.186;0.276;2023-07-13T02:49:44;5.53;;;3.45;;
64738;SDS011;51175;51.186;0.276;2023-07-13T02:50:15;7.90;;;3.38;;
64738;SDS011;51175;51.186;0.276;2023-07-13T02:50:45;5.32;;;3.00;;
64738;SDS011;51175;51.186;0.276;2023-07-13T02:51:15;7.50;;;3.38;;
64738;SDS011;51175;51.186;0.276;2023-07-13T02:51:46;7.50;;;2.90;;
64738;SDS011;51175;51.186;0.276;2023-07-13T02:52:17;7.13;;;3.22;;
64738;SDS011;51175;51.186;0.276;2023-07-13T02:52:47;6.95;;;3.33;;
64738;SDS011;51175;51.186;0.276;2023-07-13T02:53:18;6.75;;;2.75;;
64738;SDS011;51175;51.186;0.276;2023-07-13T02:53:48;7.65;;;3.22;;
64738;SDS011;51175;51.186;0.276;2023-07-13T02:54:18;6.90;;;2.88;;
64738;SDS011;51175;51.186;0.276;2023-07-13T02:54:49;7.88;;;3.45;;
64738;SDS011;51175;51.186;0.276;2023-07-13T02:55:19;7.35;;;3.35;;
64738;SDS011;51175;51.186;0.276;2023-07-13T02:55:49;8.95;;;3.42;;
64738;SDS011;51175;51.186;0.276;2023-07-13T02:56:22;5.20;;;2.65;;
64738;SDS011;51175;51.186;0.276;2023-07-13T02:56:54;5.05;;;3.13;;
64738;SDS011;51175;51.186;0.276;2023-07-13T02:57:25;6.97;;;3.10;;
64738;SDS011;51175;51.186;0.276;2023-07-13T02:57:55;6.00;;;3.13;;
64738;SDS011;51175;51.186;0.276;2023-07-13T02:58:25;6.50;;;3.20;;
64738;SDS011;51175;51.186;0.276;2023-07-13T02:58:56;5.28;;;2.92;;
64738;SDS011;51175;51.186;0.276;2023-07-13T02:59:26;9.63;;;3.58;;
64738;SDS011;51175;51.186;0.276;2023-07-13T02:59:57;7.22;;;3.10;;
64738;SDS011;51175;51.186;0.276;2023-07-13T03:00:27;8.32;;;3.85;;
64738;SDS011;51175;51.186;0.276;2023-07-13T03:00:57;6.85;;;3.25;;
64738;SDS011;51175;51.186;0.276;2023-07-13T03:01:28;9.18;;;3.33;;
64738;SDS011;51175;51.186;0.276;2023-07-13T03:01:58;7.53;;;2.80;;
64738;SDS011;51175;51.186;0.276;2023-07-13T03:02:32;7.32;;;2.65;;
64738;SDS011;51175;51.186;0.276;2023-07-13T03:03:03;7.93;;;3.38;;
64738;SDS011;51175;51.186;0.276;2023-07-13T03:03:33;6.72;;;2.65;;
64738;SDS011;51175;51.186;0.276;2023-07-13T03:04:04;8.43;;;3.38;;
64738;SDS011;51175;51.186;0.276;2023-07-13T03:04:35;6.63;;;3.72;;
64738;SDS011;51175;51.186;0.276;2023-07-13T03:05:06;8.75;;;3.53;;
64738;SDS011;51175;51.186;0.276;2023-07-13T03:05:37;8.77;;;3.10;;
64738;SDS011;51175;51.186;0.276;2023-07-13T03:06:08;6.03;;;2.95;;
64738;SDS011;51175;51.186;0.276;2023-07-13T03:06:38;6.90;;;2.83;;
64738;SDS011;51175;51.186;0.276;2023-07-13T03:07:09;8.02;;;4.18;;
64738;SDS011;51175;51.186;0.276;2023-07-13T03:07:39;6.65;;;3.08;;